Time;durP1;ratioP1;P1;durP2;ratioP2;P2;SDS_P1;SDS_P2;PMS_P1;PMS_P2;Temp;Humidity;BMP_temperature;BMP_pressure;BME280_temperature;BME280_humidity;BME280_pressure;Samples;Min_cycle;Max_cycle;Signal;HPM_P1;HPM_P2
2022/12/24 00:01:03;;;;;;;14.50;1.98;;;10.50;99.90;;;9.42;100.00;97101.97;4968136;28;20138;-73
2022/12/24 00:03:30;;;;;;;10.52;1.88;;;10.40;99.90;;;9.47;100.00;97106.94;4961417;28;20061;-74
2022/12/24 00:05:57;;;;;;;14.40;2.15;;;10.30;99.90;;;9.46;100.00;97096.63;4971157;28;20923;-74
2022/12/24 00:08:24;;;;;;;16.15;2.75;;;10.30;99.90;;;9.35;100.00;97100.56;4961728;28;20066;-74
2022/12/24 00:10:52;;;;;;;13.77;2.33;;;10.30;99.90;;;9.33;100.00;97109.31;4958575;28;20050;-73
2022/12/24 00:13:20;;;;;;;17.25;2.80;;;10.20;99.90;;;9.35;100.00;97099.69;4963185;28;20704;-73
2022/12/24 00:15:47;;;;;;;14.68;2.67;;;10.20;99.90;;;9.30;100.00;97086.97;4958436;28;20075;-74
2022/12/24 00:18:15;;;;;;;14.00;2.33;;;;;;;9.27;100.00;97087.09;4960639;28;20517;-73
2022/12/24 00:20:47;;;;;;;15.15;2.53;;;10.00;99.90;;;9.28;100.00;97116.44;4948019;28;20064;-74
2022/12/24 00:23:15;;;;;;;17.48;2.80;;;10.00;99.90;;;9.33;100.00;97109.31;4960986;28;20681;-73
2022/12/24 00:25:42;;;;;;;18.88;2.88;;;10.10;99.90;;;9.30;100.00;97099.91;4964405;28;20053;-73
2022/12/24 00:28:09;;;;;;;13.82;2.97;;;10.10;99.90;;;9.31;100.00;97111.97;4963722;28;20149;-73
2022/12/24 00:30:41;;;;;;;14.38;2.60;;;10.10;99.90;;;9.31;100.00;97109.38;4966382;28;20141;-73
2022/12/24 00:33:08;;;;;;;16.50;2.55;;;10.00;99.90;;;9.17;100.00;97096.22;4965808;28;20421;-73
2022/12/24 00:35:37;;;;;;;19.08;3.22;;;10.00;99.90;;;9.19;100.00;97115.94;4962559;28;20090;-73
2022/12/24 00:38:05;;;;;;;20.95;2.55;;;9.90;99.90;;;9.13;100.00;97131.75;4979251;28;20055;-73
2022/12/24 00:40:33;;;;;;;16.25;2.50;;;9.80;99.90;;;9.17;100.00;97117.75;4966714;28;20050;-73
2022/12/24 00:43:00;;;;;;;17.67;2.72;;;9.80;99.90;;;9.10;100.00;97125.84;4963286;28;20061;-73
2022/12/24 00:45:26;;;;;;;14.32;2.75;;;9.80;99.90;;;9.10;100.00;97111.19;4966829;28;20073;-73
2022/12/24 00:47:54;;;;;;;17.92;2.60;;;9.80;99.90;;;9.06;100.00;97122.56;4968501;28;20129;-74
2022/12/24 00:50:21;;;;;;;15.75;2.28;;;9.80;99.90;;;9.02;100.00;97120.19;4967982;28;20062;-73
2022/12/24 00:52:48;;;;;;;13.60;2.53;;;9.80;99.90;;;9.04;100.00;97103.69;4970626;28;20049;-73
2022/12/24 00:55:15;;;;;;;17.92;2.25;;;9.80;99.90;;;9.05;100.00;97127.81;4969141;28;20061;-73
2022/12/24 00:57:42;;;;;;;17.08;3.03;;;9.80;99.90;;;9.18;100.00;97106.47;4964255;28;20058;-73
2022/12/24 01:00:09;;;;;;;24.80;3.30;;;9.90;99.90;;;9.04;100.00;97120.97;4967671;28;20054;-73
2022/12/24 01:02:36;;;;;;;14.38;3.00;;;9.90;99.90;;;8.98;100.00;97122.06;4967086;28;20046;-73
2022/12/24 01:05:10;;;;;;;18.90;2.83;;;9.80;99.90;;;8.97;100.00;97108.28;4967043;28;20101;-73
2022/12/24 01:07:42;;;;;;;17.38;3.28;;;9.70;99.90;;;8.96;100.00;97140.25;4970210;28;20067;-73
2022/12/24 01:10:13;;;;;;;21.15;2.70;;;9.70;99.90;;;8.95;100.00;97143.75;4966565;28;20610;-73
2022/12/24 01:12:41;;;;;;;15.07;2.85;;;9.70;99.90;;;8.96;100.00;97160.09;4967788;28;20153;-73
2022/12/24 01:15:10;;;;;;;16.95;2.90;;;9.70;99.90;;;8.97;100.00;97156.63;4964007;28;20130;-74
2022/12/24 01:17:38;;;;;;;20.63;2.78;;;9.70;99.90;;;8.84;100.00;97164.06;4967540;28;20050;-74
2022/12/24 01:20:10;;;;;;;15.43;2.50;;;9.70;99.90;;;8.91;100.00;97170.66;4966873;28;20050;-73
2022/12/24 01:22:36;;;;;;;17.55;2.35;;;9.70;99.90;;;8.96;100.00;97180.81;4965633;28;20130;-73
2022/12/24 01:25:04;;;;;;;12.32;2.45;;;9.70;99.90;;;9.00;100.00;97198.75;4968560;28;20061;-74
2022/12/24 01:27:32;;;;;;;17.70;2.75;;;9.70;99.90;;;8.97;100.00;97222.16;4968286;28;20122;-73
2022/12/24 01:29:58;;;;;;;15.55;2.65;;;9.70;99.90;;;9.00;100.00;97210.84;4982250;28;20130;-73
2022/12/24 01:32:25;;;;;;;16.23;2.53;;;9.80;99.90;;;8.98;100.00;97228.19;4964470;28;20047;-73
2022/12/24 01:34:52;;;;;;;21.10;2.63;;;9.70;99.90;;;8.92;100.00;97228.47;4966106;28;20054;-74
2022/12/24 01:37:19;;;;;;;15.30;2.72;;;9.80;99.90;;;8.91;100.00;97229.34;4981961;28;20051;-73
2022/12/24 01:39:46;;;;;;;25.52;3.50;;;9.80;99.90;;;9.08;100.00;97223.50;4967722;28;20916;-73
2022/12/24 01:45:53;;;;;;;17.23;2.33;;;9.80;99.90;;;9.06;100.00;97213.19;4949062;28;20043;-73
2022/12/24 01:48:39;;;;;;;29.10;2.88;;;9.80;99.90;;;9.00;100.00;97219.44;4948931;28;20476;-73
2022/12/24 01:51:42;;;;;;;19.25;2.85;;;9.80;99.90;;;9.05;100.00;97203.72;4984172;28;20078;-73
2022/12/24 01:54:20;;;;;;;18.17;3.10;;;9.90;99.90;;;9.12;100.00;97236.25;4938910;28;20076;-74
2022/12/24 01:57:07;;;;;;;20.38;3.25;;;9.90;99.90;;;8.92;100.00;97223.28;4968080;28;20317;-75
2022/12/24 01:59:36;;;;;;;21.88;3.10;;;9.80;99.90;;;8.75;100.00;97242.06;4984450;28;20109;-75
2022/12/24 02:02:04;;;;;;;18.58;3.42;;;9.60;99.90;;;8.64;100.00;97226.97;4969242;28;20055;-75
2022/12/24 02:04:58;;;;;;;16.40;2.70;;;9.40;99.90;;;8.64;100.00;97239.91;4982201;28;20047;-75
2022/12/24 02:07:25;;;;;;;21.92;3.22;;;9.30;99.90;;;8.61;100.00;97239.22;4965528;28;20047;-75
2022/12/24 02:10:00;;;;;;;14.55;2.33;;;9.20;99.90;;;8.53;100.00;97240.38;4968119;28;20377;-75
2022/12/24 02:12:31;;;;;;;21.02;3.00;;;9.30;99.90;;;8.52;100.00;97246.44;4968170;28;20125;-75
2022/12/24 02:14:59;;;;;;;17.33;2.65;;;9.20;99.90;;;8.58;100.00;97261.72;4962618;28;20158;-74
2022/12/24 02:17:58;;;;;;;20.17;2.80;;;9.20;99.90;;;8.69;100.00;97260.44;4964437;28;20089;-74
2022/12/24 02:21:14;;;;;;;22.40;3.95;;;9.30;99.90;;;8.65;100.00;97272.66;4963871;28;20126;-74
2022/12/24 02:24:22;;;;;;;24.85;3.10;;;9.20;99.90;;;8.63;100.00;97284.81;4964428;28;20055;-74
2022/12/24 02:27:20;;;;;;;19.88;3.03;;;9.20;99.90;;;8.74;100.00;97290.41;4981743;28;20088;-74
2022/12/24 02:30:14;;;;;;;24.13;3.83;;;9.20;99.90;;;8.63;100.00;97290.00;4965370;28;20150;-74
2022/12/24 02:33:19;;;;;;;21.60;2.97;;;9.30;99.90;;;8.61;100.00;97291.78;4966745;28;20055;-74
2022/12/24 02:36:05;;;;;;;22.63;4.03;;;9.10;99.90;;;8.67;100.00;97290.72;4928898;28;20737;-74
2022/12/24 02:38:40;;;;;;;26.40;4.43;;;9.20;99.90;;;8.65;100.00;97285.59;4926327;28;20054;-74
2022/12/24 02:41:17;;;;;;;18.73;3.47;;;9.10;99.90;;;8.63;100.00;97279.63;4953750;28;20804;-74
2022/12/24 02:43:47;;;;;;;20.30;3.45;;;9.20;99.90;;;8.65;100.00;97293.38;4963126;28;20066;-74
2022/12/24 02:46:27;;;;;;;22.83;2.88;;;9.10;99.90;;;8.65;100.00;97295.13;4966640;28;20050;-74
2022/12/24 02:48:55;;;;;;;24.85;4.00;;;9.10;99.90;;;8.56;100.00;97291.97;4979624;28;20050;-74
2022/12/24 02:51:23;;;;;;;19.55;3.67;;;9.10;99.90;;;8.70;100.00;97306.13;4981991;28;20047;-74
2022/12/24 02:53:50;;;;;;;21.45;3.50;;;9.10;99.90;;;8.68;100.00;97303.56;4979001;28;20051;-74
2022/12/24 02:56:52;;;;;;;23.35;3.50;;;9.10;99.90;;;8.70;100.00;97303.53;4966727;28;20067;-74
2022/12/24 02:59:44;;;;;;;25.35;3.53;;;9.20;99.90;;;8.61;100.00;97304.72;4982653;28;20046;-73
2022/12/24 03:02:25;;;;;;;23.33;3.28;;;9.30;99.90;;;8.68;100.00;97301.00;4965849;28;20061;-74
2022/12/24 03:05:31;;;;;;;22.23;3.60;;;9.20;99.90;;;8.65;100.00;97293.38;4966881;28;20527;-73
2022/12/24 03:08:12;;;;;;;22.08;3.15;;;9.30;99.90;;;8.67;100.00;97296.72;4963922;28;20061;-73
2022/12/24 03:10:57;;;;;;;22.83;3.20;;;9.20;99.90;;;8.61;100.00;97309.06;4979723;28;20661;-73
2022/12/24 03:13:26;;;;;;;27.75;4.20;;;9.30;99.90;;;8.61;100.00;97307.31;4963981;28;20097;-73
2022/12/24 03:15:53;;;;;;;19.48;3.05;;;9.30;99.90;;;8.68;100.00;97313.94;4961590;28;20055;-73
2022/12/24 03:18:25;;;;;;;26.17;3.90;;;9.30;99.90;;;8.71;100.00;97328.50;4964185;28;20050;-73
2022/12/24 03:21:05;;;;;;;16.98;3.03;;;9.40;99.90;;;8.76;100.00;97311.06;4964809;28;21770;-73
2022/12/24 03:23:33;;;;;;;23.90;3.72;;;9.50;99.90;;;8.79;100.00;97310.94;4963681;28;20726;-73
2022/12/24 03:26:05;;;;;;;24.90;3.60;;;9.50;99.90;;;8.83;100.00;97299.56;4960983;28;20067;-73
2022/12/24 03:28:32;;;;;;;25.08;3.65;;;9.50;99.90;;;8.73;100.00;97300.81;4968146;28;20552;-74
2022/12/24 03:31:05;;;;;;;21.38;3.63;;;9.50;99.90;;;8.79;100.00;97306.59;4983599;28;20061;-74
2022/12/24 03:33:32;;;;;;;21.67;3.70;;;9.50;99.90;;;8.75;100.00;97314.53;4962485;28;20055;-74
2022/12/24 03:36:00;;;;;;;21.90;3.35;;;9.40;99.90;;;8.67;100.00;97325.19;4965507;28;20130;-73
2022/12/24 03:38:27;;;;;;;23.67;4.28;;;9.40;99.90;;;8.71;100.00;97303.47;4962097;28;20141;-74
2022/12/24 03:40:53;;;;;;;26.77;4.10;;;9.40;99.90;;;8.73;100.00;97317.16;4966153;28;20058;-73
2022/12/24 03:43:20;;;;;;;19.90;4.15;;;9.40;99.90;;;8.68;100.00;97339.81;4965511;28;20432;-74
2022/12/24 03:45:47;;;;;;;27.17;4.18;;;9.50;99.90;;;8.65;100.00;97342.53;4967608;28;20047;-74
2022/12/24 03:48:14;;;;;;;27.00;3.80;;;9.50;99.90;;;8.75;100.00;97330.06;4967563;28;20119;-75
2022/12/24 03:50:41;;;;;;;32.38;4.03;;;9.50;99.90;;;8.73;100.00;97334.44;4967729;28;20061;-74
2022/12/24 03:53:08;;;;;;;28.17;4.88;;;9.40;99.90;;;8.85;100.00;97333.97;4982834;28;20110;-74
2022/12/24 03:55:37;;;;;;;22.55;4.18;;;9.40;99.90;;;8.77;100.00;97361.91;4980630;28;20202;-74
2022/12/24 03:58:05;;;;;;;21.13;3.70;;;9.30;99.90;;;8.79;100.00;97363.53;4966003;28;20062;-74
2022/12/24 04:00:32;;;;;;;28.60;3.90;;;9.40;99.90;;;8.90;100.00;97354.50;4965749;28;20057;-74
2022/12/24 04:02:59;;;;;;;31.67;4.97;;;9.50;99.90;;;8.95;100.00;97353.41;4965495;28;20053;-75
2022/12/24 04:05:26;;;;;;;32.22;5.43;;;9.60;99.90;;;8.92;100.00;97347.53;4968192;28;20157;-74
2022/12/24 04:07:53;;;;;;;25.35;4.65;;;9.50;99.90;;;8.87;100.00;97344.25;4968369;28;20122;-74
2022/12/24 04:10:20;;;;;;;26.88;4.85;;;9.40;99.90;;;8.87;100.00;97332.19;4982280;28;20060;-74
2022/12/24 04:12:47;;;;;;;36.85;5.70;;;9.40;99.90;;;8.85;100.00;97348.66;4968868;28;20152;-74
2022/12/24 04:15:14;;;;;;;36.17;4.60;;;9.50;99.90;;;8.87;100.00;97364.97;4967955;28;20369;-74
2022/12/24 04:17:41;;;;;;;33.55;5.43;;;9.40;99.90;;;8.81;100.00;97360.06;4970682;28;20063;-74
2022/12/24 04:20:08;;;;;;;33.45;4.50;;;9.40;99.90;;;8.85;100.00;97392.66;4983453;28;20381;-74
2022/12/24 04:22:35;;;;;;;28.92;5.10;;;9.40;99.90;;;8.85;100.00;97371.94;4968148;28;20049;-74
2022/12/24 04:25:02;;;;;;;28.70;4.53;;;9.40;99.90;;;8.83;100.00;97360.84;4966754;28;20057;-74
2022/12/24 04:27:30;;;;;;;34.22;5.13;;;9.40;99.90;;;8.83;100.00;97350.47;4968768;28;20047;-74
2022/12/24 04:29:57;;;;;;;33.05;5.50;;;9.40;99.90;;;8.79;100.00;97352.34;4968433;28;20047;-74
2022/12/24 04:32:27;;;;;;;28.45;4.43;;;9.40;99.90;;;8.79;100.00;97348.00;4965993;28;20463;-74
2022/12/24 04:34:54;;;;;;;32.70;5.03;;;9.40;99.90;;;8.90;100.00;97390.75;4968309;28;20146;-74
2022/12/24 04:37:21;;;;;;;32.78;5.95;;;9.50;99.90;;;8.75;100.00;97359.34;4969202;28;20043;-74
2022/12/24 04:39:48;;;;;;;36.25;5.25;;;9.50;99.90;;;8.81;100.00;97352.28;4967863;28;20067;-74
2022/12/24 04:42:15;;;;;;;38.30;5.18;;;9.40;99.90;;;8.77;100.00;97349.78;4967540;28;20130;-74
2022/12/24 04:44:42;;;;;;;26.00;4.88;;;9.50;99.90;;;8.71;100.00;97354.38;4968726;28;20047;-73
2022/12/24 04:47:09;;;;;;;35.25;5.28;;;9.50;99.90;;;8.79;100.00;97353.16;4969660;28;20047;-74
2022/12/24 04:49:36;;;;;;;30.65;4.90;;;9.50;99.90;;;8.85;100.00;97340.88;4980213;28;20073;-74
2022/12/24 04:52:04;;;;;;;35.00;6.03;;;9.50;99.90;;;8.76;100.00;97350.72;4968223;28;20110;-74
2022/12/24 04:54:31;;;;;;;33.40;6.15;;;9.50;99.90;;;8.80;100.00;97341.06;4968348;28;20046;-74
2022/12/24 04:56:58;;;;;;;28.45;4.65;;;9.50;99.90;;;8.78;100.00;97342.88;4968786;28;20693;-73
2022/12/24 04:59:24;;;;;;;30.25;4.15;;;9.50;99.90;;;8.76;100.00;97332.59;4984607;28;20055;-74
2022/12/24 05:01:51;;;;;;;33.55;4.78;;;9.50;99.90;;;8.75;100.00;97322.28;4969019;28;20047;-74
2022/12/24 05:04:18;;;;;;;34.33;5.63;;;9.40;99.90;;;8.77;100.00;97330.84;4966672;28;20501;-74
2022/12/24 05:06:45;;;;;;;34.50;4.78;;;9.40;99.90;;;8.73;100.00;97337.88;4968087;28;20520;-74
2022/12/24 05:09:12;;;;;;;29.40;5.03;;;9.40;99.90;;;8.71;100.00;97334.53;4968213;28;20059;-74
2022/12/24 05:11:39;;;;;;;37.17;5.15;;;9.40;99.90;;;8.68;100.00;97344.97;4984535;28;20512;-74
2022/12/24 05:14:06;;;;;;;30.17;6.05;;;9.40;99.90;;;8.76;100.00;97342.13;4966565;28;20055;-73
2022/12/24 05:16:33;;;;;;;30.58;4.55;;;9.40;99.90;;;8.73;100.00;97342.22;4966857;28;20501;-74
2022/12/24 05:19:00;;;;;;;26.83;5.13;;;9.40;99.90;;;8.62;100.00;97342.66;4968768;28;20057;-74
2022/12/24 05:21:27;;;;;;;26.58;4.78;;;9.40;99.90;;;8.67;100.00;97339.88;4981969;28;20134;-74
2022/12/24 05:26:48;;;;;;;28.85;4.68;;;9.40;99.90;;;8.73;100.00;97342.22;4967831;28;20047;-73
2022/12/24 05:29:15;;;;;;;32.70;5.20;;;9.50;99.90;;;8.74;100.00;97356.84;4964114;28;20042;-73
2022/12/24 05:31:44;;;;;;;32.67;5.53;;;9.40;99.90;;;8.67;100.00;97360.59;4968343;28;20086;-73
2022/12/24 05:34:12;;;;;;;29.13;3.90;;;9.40;99.90;;;8.66;100.00;97358.88;4966808;28;20057;-73
2022/12/24 05:36:40;;;;;;;29.67;4.72;;;9.40;99.90;;;8.69;100.00;97354.44;4968327;28;20058;-73
2022/12/24 05:39:17;;;;;;;28.10;4.57;;;9.30;99.90;;;8.70;100.00;97356.13;4964551;28;20055;-73
2022/12/24 05:41:45;;;;;;;27.45;4.38;;;9.40;99.90;;;8.68;100.00;97355.31;4966162;28;20054;-73
2022/12/24 05:44:14;;;;;;;43.60;6.13;;;9.40;99.90;;;8.66;100.00;97358.88;4968018;28;20051;-73
2022/12/24 05:46:42;;;;;;;29.02;4.07;;;9.40;99.90;;;8.62;100.00;97358.19;4968046;28;20051;-73
2022/12/24 05:49:09;;;;;;;29.45;4.50;;;9.40;99.90;;;8.59;100.00;97348.75;4967817;28;20047;-73
2022/12/24 05:51:37;;;;;;;27.08;4.30;;;9.40;99.90;;;8.68;100.00;97364.84;4969016;28;20133;-73
2022/12/24 05:54:04;;;;;;;34.88;5.40;;;9.40;99.90;;;8.57;100.00;97352.31;4967393;28;20058;-73
2022/12/24 05:56:31;;;;;;;35.70;5.55;;;9.40;99.90;;;8.65;100.00;97370.97;4967970;28;20070;-73
2022/12/24 05:58:58;;;;;;;31.00;4.70;;;9.40;99.90;;;8.67;100.00;97379.53;4968341;28;20120;-73
2022/12/24 06:01:26;;;;;;;36.78;5.20;;;9.40;99.90;;;8.64;100.00;97383.97;4968883;28;20144;-73
2022/12/24 06:03:53;;;;;;;32.72;5.05;;;9.40;99.90;;;8.57;100.00;97391.13;4966763;28;20050;-73
2022/12/24 06:06:24;;;;;;;27.10;4.38;;;9.40;99.90;;;8.64;100.00;97381.38;4968094;28;20046;-73
2022/12/24 06:08:52;;;;;;;27.77;4.78;;;9.40;99.90;;;8.57;100.00;97397.13;4968689;28;20071;-73
2022/12/24 06:11:23;;;;;;;34.25;4.72;;;9.40;99.90;;;8.57;100.00;97383.34;4970329;28;20137;-73
2022/12/24 06:13:52;;;;;;;38.10;5.90;;;9.30;99.90;;;8.62;100.00;97399.56;4967339;28;20082;-73
2022/12/24 06:16:20;;;;;;;33.65;5.93;;;9.30;99.90;;;8.57;100.00;97401.47;4964611;28;20225;-73
2022/12/24 06:18:48;;;;;;;32.97;5.72;;;9.30;99.90;;;8.49;100.00;97398.34;4965624;28;20054;-73
2022/12/24 06:21:15;;;;;;;38.28;4.78;;;9.30;99.90;;;8.49;100.00;97393.16;4965471;28;20055;-73
2022/12/24 06:23:44;;;;;;;29.15;5.28;;;9.30;99.90;;;8.45;100.00;97404.50;4968193;28;20050;-73
2022/12/24 06:26:15;;;;;;;31.73;5.32;;;9.20;99.90;;;8.44;100.00;97401.09;4966444;28;20432;-73
2022/12/24 06:28:43;;;;;;;29.38;5.18;;;9.20;99.90;;;8.41;100.00;97397.75;4968202;28;20069;-73
2022/12/24 06:31:14;;;;;;;34.88;6.05;;;9.10;99.90;;;8.44;100.00;97408.84;4965464;28;20055;-73
2022/12/24 06:33:41;;;;;;;25.35;4.43;;;9.10;99.90;;;8.36;100.00;97405.66;4961896;28;20069;-73
2022/12/24 06:36:13;;;;;;;31.35;5.75;;;9.10;99.90;;;8.35;100.00;97398.81;4964381;28;20129;-73
2022/12/24 06:38:45;;;;;;;33.28;5.47;;;9.00;99.90;;;8.25;100.00;97425.88;4965923;28;20062;-73
2022/12/24 06:41:12;;;;;;;30.10;5.32;;;9.10;99.90;;;8.37;100.00;97417.72;4966536;28;20086;-73
2022/12/24 06:43:47;;;;;;;34.08;5.60;;;9.10;99.90;;;8.33;100.00;97414.38;4963420;28;20145;-73
2022/12/24 06:46:15;;;;;;;37.35;6.13;;;9.10;99.90;;;8.35;100.00;97428.09;4963511;28;20576;-74
2022/12/24 06:48:46;;;;;;;31.63;4.25;;;9.00;99.90;;;8.44;100.00;97439.03;4961348;28;20047;-73
2022/12/24 06:51:17;;;;;;;32.50;5.22;;;9.10;99.90;;;8.43;100.00;97433.00;4967067;28;20805;-73
2022/12/24 06:53:44;;;;;;;29.95;4.95;;;9.10;99.90;;;8.37;100.00;97430.63;4981417;28;20063;-73
2022/12/24 06:56:13;;;;;;;33.78;5.75;;;9.00;99.90;;;8.37;100.00;97449.59;4969217;28;20050;-73
2022/12/24 06:58:41;;;;;;;29.20;5.13;;;9.10;99.90;;;8.43;100.00;97437.34;4966007;28;20050;-73
2022/12/24 07:01:12;;;;;;;32.40;5.38;;;9.10;99.90;;;8.42;100.00;97477.91;4965820;28;20051;-74
2022/12/24 07:03:39;;;;;;;36.55;5.68;;;9.20;99.90;;;8.41;100.00;97446.91;4965216;28;20756;-73
2022/12/24 07:06:20;;;;;;;29.35;5.45;;;9.20;99.90;;;8.48;100.00;97450.94;4966099;28;20584;-74
2022/12/24 07:08:47;;;;;;;37.65;5.78;;;9.20;99.90;;;8.41;100.00;97462.41;4981344;28;20218;-74
2022/12/24 07:11:15;;;;;;;36.72;5.13;;;9.10;99.90;;;8.40;100.00;97443.47;4968382;28;20054;-74
2022/12/24 07:13:42;;;;;;;34.95;5.72;;;9.10;99.90;;;8.48;100.00;97438.03;4967419;28;20055;-74
2022/12/24 07:16:09;;;;;;;42.33;6.05;;;9.10;99.90;;;8.39;100.00;97433.97;4964345;28;20064;-74
2022/12/24 07:18:37;;;;;;;39.13;6.38;;;9.10;99.90;;;8.34;100.00;97439.31;4964469;28;20050;-73
2022/12/24 07:21:06;;;;;;;30.77;4.75;;;9.10;99.90;;;8.34;100.00;97452.25;4963519;28;20444;-74
2022/12/24 07:23:33;;;;;;;45.35;5.28;;;9.00;99.90;;;8.36;100.00;97468.56;4963203;28;20047;-73
2022/12/24 07:26:05;;;;;;;36.75;5.82;;;9.00;99.90;;;8.34;100.00;97465.19;4966615;28;20078;-73
2022/12/24 07:28:32;;;;;;;37.55;6.05;;;9.00;99.90;;;8.38;100.00;97468.53;4966432;28;20049;-73
2022/12/24 07:30:59;;;;;;;33.45;5.55;;;9.20;99.90;;;8.40;100.00;97468.47;4966956;28;20086;-73
2022/12/24 07:33:27;;;;;;;36.60;5.18;;;9.20;99.90;;;8.45;100.00;97479.53;4966204;28;20077;-73
2022/12/24 07:36:20;;;;;;;36.42;5.75;;;9.10;99.90;;;8.37;100.00;97478.03;4968051;28;20078;-73
2022/12/24 07:38:47;;;;;;;36.17;5.15;;;9.20;99.90;;;8.41;100.00;97489.13;4976393;28;20516;-73
2022/12/24 07:41:14;;;;;;;34.60;5.22;;;9.20;99.90;;;8.42;100.00;97487.41;4965772;28;20049;-73
2022/12/24 07:43:41;;;;;;;40.55;6.15;;;9.20;99.90;;;8.44;100.00;97489.03;4957760;28;20147;-74
2022/12/24 07:46:08;;;;;;;38.63;5.93;;;9.20;99.90;;;8.44;100.00;97488.16;4961997;28;20125;-73
2022/12/24 07:48:35;;;;;;;39.95;6.65;;;9.20;99.90;;;8.49;100.00;97486.28;4981089;28;20145;-73
2022/12/24 07:51:03;;;;;;;35.75;6.40;;;9.30;99.90;;;8.53;100.00;97493.00;4963204;28;20061;-73
2022/12/24 07:53:30;;;;;;;30.13;5.45;;;9.30;99.90;;;8.61;100.00;97500.53;4967861;28;20090;-73
2022/12/24 07:55:58;;;;;;;30.65;5.43;;;9.30;99.90;;;8.58;100.00;97501.47;4967377;28;20069;-73
2022/12/24 07:58:25;;;;;;;30.17;6.00;;;9.30;99.90;;;8.61;100.00;97498.78;4966645;28;20141;-74
2022/12/24 08:00:57;;;;;;;41.85;5.45;;;9.40;99.90;;;8.58;100.00;97515.25;4965743;28;20543;-73
2022/12/24 08:03:25;;;;;;;32.42;5.72;;;9.40;99.90;;;8.59;100.00;97511.75;4962486;28;20070;-73
2022/12/24 08:05:52;;;;;;;38.10;6.82;;;9.40;99.90;;;8.51;100.00;97516.38;4962608;28;20043;-73
2022/12/24 08:08:20;;;;;;;32.75;5.85;;;9.50;99.90;;;8.57;100.00;97512.72;4962654;28;20046;-74
2022/12/24 08:10:47;;;;;;;31.83;5.63;;;9.40;99.90;;;8.67;100.00;97515.84;4961206;28;20050;-73
2022/12/24 08:13:14;;;;;;;38.63;6.32;;;9.40;99.90;;;8.66;100.00;97508.94;4965537;28;20362;-73
2022/12/24 08:15:41;;;;;;;41.63;5.63;;;9.40;99.90;;;8.62;100.00;97509.94;4962091;28;20055;-74
2022/12/24 08:18:09;;;;;;;35.03;6.13;;;9.40;99.90;;;8.66;100.00;97506.38;4962943;28;20058;-74
2022/12/24 08:20:38;;;;;;;33.72;6.15;;;9.40;99.90;;;8.61;100.00;97501.34;4979961;28;20057;-74
2022/12/24 08:27:11;;;;;;;34.10;5.15;;;9.40;99.90;;;8.67;100.00;97495.97;4955331;28;20791;-74
2022/12/24 08:29:38;;;;;;;35.92;6.13;;;9.40;99.90;;;8.61;100.00;97503.09;4964001;28;20142;-73
2022/12/24 08:32:05;;;;;;;30.85;5.57;;;9.40;99.90;;;8.71;100.00;97515.66;4965660;28;20070;-73
2022/12/24 08:34:32;;;;;;;39.28;6.85;;;9.50;99.90;;;8.62;100.00;97518.59;4966631;28;20047;-73
2022/12/24 08:36:59;;;;;;;45.78;6.60;;;9.50;99.90;;;8.58;100.00;97528.19;4966859;28;20097;-74
2022/12/24 08:39:26;;;;;;;36.15;6.40;;;9.50;99.90;;;8.55;100.00;97546.41;4967386;28;20058;-73
2022/12/24 08:41:53;;;;;;;35.92;5.57;;;9.50;99.90;;;8.57;100.00;97546.34;4966908;28;20138;-73
2022/12/24 08:44:20;;;;;;;29.50;5.47;;;9.50;99.90;;;8.71;100.00;97538.09;4978802;28;20046;-73
2022/12/24 08:46:47;;;;;;;32.10;5.68;;;9.50;99.90;;;8.70;100.00;97554.53;4982466;28;20082;-73
2022/12/24 08:49:14;;;;;;;37.90;6.72;;;9.60;99.90;;;8.68;100.00;97544.22;4967114;28;20047;-73
2022/12/24 08:51:41;;;;;;;35.95;5.57;;;9.60;99.90;;;8.70;100.00;97542.44;4982133;28;20070;-73
2022/12/24 08:54:08;;;;;;;39.53;6.15;;;9.70;99.90;;;8.81;100.00;97549.81;4967557;28;20703;-73
2022/12/24 08:56:35;;;;;;;32.50;6.00;;;9.80;99.90;;;8.82;100.00;97561.84;4967426;28;20046;-73
2022/12/24 08:59:02;;;;;;;40.03;6.95;;;9.80;99.90;;;8.84;100.00;97557.47;4968109;28;20505;-73
2022/12/24 09:01:30;;;;;;;37.38;7.07;;;9.90;99.90;;;8.88;100.00;97555.63;4970928;28;20458;-73
2022/12/24 09:03:57;;;;;;;32.33;7.47;;;9.90;99.90;;;8.84;100.00;97549.69;4970558;28;20054;-73
2022/12/24 09:06:24;;;;;;;35.88;5.93;;;9.90;99.90;;;8.77;100.00;97563.75;4969730;28;20051;-74
2022/12/24 09:08:51;;;;;;;44.15;6.50;;;9.80;99.90;;;8.69;100.00;97565.75;4970449;28;20446;-73
2022/12/24 09:11:19;;;;;;;33.92;6.50;;;9.80;99.90;;;8.77;100.00;97563.75;4968470;28;20065;-73
2022/12/24 09:13:46;;;;;;;45.55;6.78;;;9.80;99.90;;;8.79;100.00;97570.56;4970332;28;20050;-73
2022/12/24 09:16:13;;;;;;;35.40;5.63;;;9.80;99.90;;;8.79;100.00;97577.50;4968649;28;20137;-73
2022/12/24 09:18:41;;;;;;;37.88;5.88;;;9.80;99.90;;;8.85;100.00;97571.25;4985311;28;20094;-73
2022/12/24 09:21:14;;;;;;;34.67;6.05;;;9.80;99.90;;;8.82;100.00;97577.38;4984893;28;20062;-73
2022/12/24 09:23:44;;;;;;;33.08;6.05;;;9.80;99.90;;;8.97;100.00;97591.53;4968707;28;20039;-74
2022/12/24 09:26:24;;;;;;;33.28;5.53;;;9.80;99.90;;;8.92;100.00;97593.44;4951974;28;20055;-74
2022/12/24 09:28:52;;;;;;;33.05;6.30;;;9.80;99.90;;;8.90;100.00;97590.06;4969193;28;20082;-73
2022/12/24 09:31:20;;;;;;;33.17;6.53;;;9.80;99.90;;;9.00;100.00;97592.25;4971633;28;20047;-74
2022/12/24 09:33:49;;;;;;;36.50;5.40;;;9.80;99.90;;;8.93;100.00;97602.88;4971184;28;20652;-73
2022/12/24 09:36:17;;;;;;;28.85;6.03;;;9.90;99.90;;;9.10;100.00;97599.69;4966909;28;20043;-73
2022/12/24 09:38:44;;;;;;;33.85;5.93;;;10.00;99.90;;;9.26;100.00;97608.59;4970118;28;20047;-74
2022/12/24 09:41:33;;;;;;;30.30;5.63;;;10.10;99.90;;;9.36;100.00;97609.09;4967359;28;20043;-73
2022/12/24 09:44:33;;;;;;;30.15;5.22;;;10.20;99.90;;;9.30;100.00;97610.16;4978335;28;20047;-74
2022/12/24 09:47:11;;;;;;;32.10;5.65;;;10.20;99.90;;;9.31;100.00;97600.66;4963680;28;20433;-74
2022/12/24 09:49:46;;;;;;;37.28;6.90;;;10.20;99.90;;;9.02;100.00;97599.13;4959771;28;20141;-74
2022/12/24 09:52:33;;;;;;;27.98;4.75;;;10.20;99.90;;;9.15;100.00;97595.19;4964255;28;20488;-73
2022/12/24 09:55:22;;;;;;;33.95;5.95;;;10.20;99.90;;;9.18;100.00;97592.47;4968071;28;20129;-73
2022/12/24 09:57:51;;;;;;;32.35;5.55;;;10.20;99.90;;;9.02;100.00;97596.53;4965789;28;20054;-74
2022/12/24 10:00:31;;;;;;;31.45;5.57;;;10.20;99.90;;;9.29;100.00;97594.69;4979055;28;20505;-74
2022/12/24 10:02:58;;;;;;;35.83;7.15;;;10.20;99.90;;;9.08;100.00;97617.88;4959954;28;20062;-74
2022/12/24 10:05:44;;;;;;;39.80;6.55;;;10.20;99.90;;;9.36;100.00;97604.75;4957641;28;20109;-74
2022/12/24 10:08:33;;;;;;;31.55;6.03;;;10.30;99.90;;;9.46;100.00;97612.19;4980371;28;20429;-73
2022/12/24 10:15:23;;;;;;;33.03;6.00;;;10.50;99.90;;;9.39;100.00;97615.00;4958919;28;20237;-74
2022/12/24 10:18:33;;;;;;;30.42;5.10;;;10.50;99.90;;;9.52;100.00;97605.03;4963296;28;20057;-74
2022/12/24 10:21:38;;;;;;;28.88;5.35;;;10.60;99.90;;;9.36;100.00;97614.28;4960038;28;20070;-73
2022/12/24 10:24:15;;;;;;;30.50;5.10;;;10.60;99.90;;;9.43;100.00;97616.56;4959742;28;20053;-74
2022/12/24 10:27:00;;;;;;;28.45;5.45;;;10.60;99.90;;;9.62;100.00;97605.50;4962110;28;20061;-74
2022/12/24 10:29:31;;;;;;;29.42;5.53;;;10.60;99.90;;;9.57;100.00;97616.06;4958451;28;20291;-74
2022/12/24 10:32:08;;;;;;;45.72;6.82;;;10.60;99.90;;;9.52;100.00;97602.44;4961202;28;20292;-73
2022/12/24 10:34:43;;;;;;;40.72;6.75;;;10.60;99.90;;;9.54;100.00;97610.16;4960820;28;20105;-74
2022/12/24 10:37:24;;;;;;;33.63;5.53;;;10.60;99.90;;;9.52;100.00;97606.78;4964518;28;20102;-73
2022/12/24 10:39:52;;;;;;;32.28;5.32;;;10.60;99.90;;;9.41;100.00;97608.00;4975798;28;20058;-73
2022/12/24 10:42:22;;;;;;;32.90;5.68;;;10.70;99.90;;;9.41;100.00;97602.00;4976856;28;20051;-74
2022/12/24 10:44:54;;;;;;;23.77;4.80;;;10.60;99.90;;;9.64;100.00;97601.94;4962660;28;20049;-73
2022/12/24 10:47:22;;;;;;;28.58;5.40;;;10.60;99.90;;;9.54;100.00;97604.97;4963524;28;20085;-73
2022/12/24 10:50:00;;;;;;;30.85;5.47;;;10.50;99.90;;;9.45;100.00;97615.69;4977482;28;20946;-74